East Missoula, Montana
Current Conditions -  °F | °C
As of 9:53 AM on Friday 28 Nov 2014 (Local Time) from KMSO Reporting Station
Overcast Overcast  
Wind Chill: 39°   Ceiling: 5000
Heat Index: 44°   Visibility: 10mi
Dew Point: 39°   Wind: 10mph
Humidity: 82%   Direction: 150°SSE
Pressure: 29.65"   Gusts: NA
Location:  46.8557°N, 114.015°W
Report Text: KMSO 281653Z 15009KT 10SM FEW045 BKN050 OVC075 07/04 A2965 RMK AO2 SLP047 T00670039
Loading
Personal Weather Stations






























Interactive Weather Map New forecast layout! Learn more

10-Day Weather Forecast

Advertisements
Track Severe Weather on mobile